Clifton, Maine
Current Conditions -  °F | °C
As of 3:53 PM on Friday 31 Oct 2014 (Local Time) from KBGR Reporting Station
Overcast Overcast  
Wind Chill: 46°   Ceiling: 5000
Heat Index: 49°   Visibility: 10mi
Dew Point: 31°   Wind: 7mph
Humidity: 50%   Direction: 20°NNE
Pressure: 30.04"   Gusts: NA
Location:  44.8119°N, 68.5528°W
Report Text: KBGR 311953Z 02006KT 10SM BKN050 OVC200 09/M01 A3004 RMK AO2 SLP172 T00941006
Loading
Personal Weather Stations






























Interactive Weather Map
Tropical Storm Tracking
New forecast layout! Learn more

10-Day Weather Forecast

Advertisements
Track Severe Weather on mobile